Tara — WDG3401 — position and weather

sailwx.info

Track history (hours):
 
Tides and Currents Weather Stations Pressure Air Temp Water Temp Dewpoint Dewpoint Depression Visibility Wind Speed Wind Dir Waves Ship Positions

Tara

Owner: Powell, Mark C, Tulsa, OK. More information available from US FCC via Universal Licensing System and Coast Guard Vessel Documentation Center.

Last reported at 2017-Aug-29 08:26 UTC. Time now 2017-Sep-23 07:44 UTC.
Position N 37°09' E 025°47'.
Warning: this ship's position is 24 days out of date.

Length 17 m.

Type: Sailing vessel. MMSI: 367525660.

Date/timePositionNaut miles runAvg speedWind from/ knotsBaromVisibWave heightAir tempDewpointWater temp
2017-Aug-29 08:26N 37°09' E 025°47'3 6.6
2017-Aug-29 08:00N 37°10' E 025°44'3 6.2
2017-Aug-29 07:30N 37°11' E 025°40'9 6.3
2017-Aug-29 06:06N 37°12' E 025°29'1 5.5
2017-Aug-29 06:00N 37°12' E 025°28'5 5.3
2017-Aug-29 05:04N 37°08' E 025°24'0 6.2
2017-Aug-29 05:00N 37°08' E 025°23'2 3.8
2017-Aug-29 04:28N 37°06' E 025°22'0 0.0
2017-Aug-29 03:57N 37°06' E 025°22'0 0.0
2017-Aug-29 03:30N 37°06' E 025°22'0 0.0
2017-Aug-29 03:00N 37°06' E 025°22'0 0.0
2017-Aug-29 02:30N 37°06' E 025°22'0 0.0
2017-Aug-29 01:59N 37°06' E 025°22'0 0.0
2017-Aug-29 01:29N 37°06' E 025°22'0 0.0
2017-Aug-29 00:59N 37°06' E 025°22'0 0.0
2017-Aug-29 00:29N 37°06' E 025°22'0 0.0
2017-Aug-28 23:59N 37°06' E 025°22'0 0.0
2017-Aug-28 23:29N 37°06' E 025°22'0 0.0
2017-Aug-28 22:59N 37°06' E 025°22'0 0.0
2017-Aug-28 22:29N 37°06' E 025°22'0 0.0
2017-Aug-28 21:56N 37°06' E 025°22'0 0.0
2017-Aug-28 21:29N 37°06' E 025°22'0 0.0
2017-Aug-28 20:59N 37°06' E 025°22'0 0.0
2017-Aug-28 20:29N 37°06' E 025°22'0 0.0
2017-Aug-28 19:59N 37°06' E 025°22'0 0.0
2017-Aug-28 19:29N 37°06' E 025°22'0 0.0
2017-Aug-28 18:59N 37°06' E 025°22'0 0.0
2017-Aug-28 18:29N 37°06' E 025°22'0 0.0
2017-Aug-28 17:59N 37°06' E 025°22'0 0.0
2017-Aug-28 17:29N 37°06' E 025°22'0 0.0
2017-Aug-28 16:59N 37°06' E 025°22'0 0.0
2017-Aug-28 16:29N 37°06' E 025°22'0 0.0
2017-Aug-28 15:59N 37°06' E 025°22'0 0.0
2017-Aug-28 15:29N 37°06' E 025°22'0 0.0
2017-Aug-28 14:59N 37°06' E 025°22'0 0.0
2017-Aug-28 14:29N 37°06' E 025°22'0 0.0
2017-Aug-28 13:59N 37°06' E 025°22'0 0.0
2017-Aug-28 13:29N 37°06' E 025°22'0 0.0
2017-Aug-28 12:59N 37°06' E 025°22'0 0.0
2017-Aug-28 12:26N 37°06' E 025°22'0 0.0
2017-Aug-28 11:59N 37°06' E 025°22'0 0.0
2017-Aug-28 11:29N 37°06' E 025°22'0 0.0
2017-Aug-28 10:59N 37°06' E 025°22'0 0.0
2017-Aug-28 10:29N 37°06' E 025°22'0 0.0
2017-Aug-28 09:59N 37°06' E 025°22'0 0.0
2017-Aug-28 09:29N 37°06' E 025°22'0 0.0
2017-Aug-28 09:00N 37°06' E 025°22'0 0.0
2017-Aug-28 08:29N 37°06' E 025°22'0 0.0
2017-Aug-28 07:59N 37°06' E 025°22'0 0.0
2017-Aug-28 07:29N 37°06' E 025°22'0 0.0
2017-Aug-28 06:59N 37°06' E 025°22'0 0.0
2017-Aug-28 03:17N 37°06' E 025°22'0 0.0
2017-Aug-28 02:59N 37°06' E 025°22'0 0.0
2017-Aug-28 02:29N 37°06' E 025°22'0 0.0
2017-Aug-28 01:59N 37°06' E 025°22'0 0.0
2017-Aug-28 01:29N 37°06' E 025°22'0 0.0
2017-Aug-28 00:59N 37°06' E 025°22'0 0.0
2017-Aug-28 00:29N 37°06' E 025°22'0 0.0
2017-Aug-27 23:56N 37°06' E 025°22'0 0.0
2017-Aug-27 23:29N 37°06' E 025°22'0 0.0
2017-Aug-27 22:59N 37°06' E 025°22'0 0.0
2017-Aug-27 22:29N 37°06' E 025°22'0 0.0
2017-Aug-27 21:59N 37°06' E 025°22'0 0.0
2017-Aug-27 21:26N 37°06' E 025°22'0 0.0
2017-Aug-27 20:59N 37°06' E 025°22'0 0.0
2017-Aug-27 20:29N 37°06' E 025°22'0 0.0
2017-Aug-27 19:59N 37°06' E 025°22'0 0.0
2017-Aug-27 19:29N 37°06' E 025°22'0 0.0
2017-Aug-27 18:59N 37°06' E 025°22'0 0.0
2017-Aug-27 18:29N 37°06' E 025°22'0 0.0
2017-Aug-27 17:59N 37°06' E 025°22'0 0.0
2017-Aug-27 17:29N 37°06' E 025°22'0 0.0
2017-Aug-27 16:59N 37°06' E 025°22'0 0.0
2017-Aug-27 16:29N 37°06' E 025°22'0 0.0
2017-Aug-27 15:59N 37°06' E 025°22'0 0.0
2017-Aug-27 15:29N 37°06' E 025°22'0 0.0
2017-Aug-27 14:56N 37°06' E 025°22'0 0.0
2017-Aug-27 14:29N 37°06' E 025°22'0 0.0
2017-Aug-27 13:59N 37°06' E 025°22'0 0.0
2017-Aug-27 13:29N 37°06' E 025°22'0 0.0
2017-Aug-27 13:00N 37°06' E 025°22'0 0.0
2017-Aug-27 12:29N 37°06' E 025°22'0 0.0
2017-Aug-27 11:59N 37°06' E 025°22'0 0.0
2017-Aug-27 11:29N 37°06' E 025°22'0 0.0
2017-Aug-27 10:59N 37°06' E 025°22'0 0.0
2017-Aug-27 10:29N 37°06' E 025°22'0 0.0
2017-Aug-27 09:59N 37°06' E 025°22'0 0.0
2017-Aug-27 09:29N 37°06' E 025°22'0 0.0
2017-Aug-27 08:59N 37°06' E 025°22'0 0.0
2017-Aug-27 08:29N 37°06' E 025°22'0 0.0
2017-Aug-27 07:59N 37°06' E 025°22'0 0.0
2017-Aug-27 07:29N 37°06' E 025°22'0 0.0
2017-Aug-27 06:59N 37°06' E 025°22'0 0.0
2017-Aug-27 06:29N 37°06' E 025°22'0 0.0
2017-Aug-27 05:59N 37°06' E 025°22'0 0.0
2017-Aug-27 05:29N 37°06' E 025°22'0 0.0
2017-Aug-27 04:59N 37°06' E 025°22'0 0.0
2017-Aug-27 04:26N 37°06' E 025°22'0 0.0
2017-Aug-27 03:59N 37°06' E 025°22'0 0.0
2017-Aug-27 03:29N 37°06' E 025°22'0 0.0
2017-Aug-27 02:59N 37°06' E 025°22'0 0.0
2017-Aug-27 02:29N 37°06' E 025°22'0 0.0
2017-Aug-27 01:59N 37°06' E 025°22'0 0.0
2017-Aug-27 01:29N 37°06' E 025°22'0 0.0
2017-Aug-27 00:59N 37°06' E 025°22'0 0.0
2017-Aug-27 00:29N 37°06' E 025°22'0 0.0
2017-Aug-26 23:59N 37°06' E 025°22'0 0.0
2017-Aug-26 23:29N 37°06' E 025°22'0 0.0
2017-Aug-26 22:59N 37°06' E 025°22'0 0.0
2017-Aug-26 22:29N 37°06' E 025°22'0 0.0
2017-Aug-26 21:59N 37°06' E 025°22'0 0.0
2017-Aug-26 21:29N 37°06' E 025°22'0 0.0
2017-Aug-26 20:59N 37°06' E 025°22'0 0.0
2017-Aug-26 20:29N 37°06' E 025°22'0 0.0
2017-Aug-26 19:59N 37°06' E 025°22'0 0.0
2017-Aug-26 19:29N 37°06' E 025°22'0 0.0
2017-Aug-26 18:59N 37°06' E 025°22'0 0.0
2017-Aug-26 18:29N 37°06' E 025°22'0 0.0
2017-Aug-26 17:59N 37°06' E 025°22'0 0.0
2017-Aug-26 17:29N 37°06' E 025°22'0 0.0
2017-Aug-26 16:59N 37°06' E 025°22'0 0.0
2017-Aug-26 16:29N 37°06' E 025°22'0 0.0
2017-Aug-26 15:56N 37°06' E 025°22'0 0.0
2017-Aug-26 15:29N 37°06' E 025°22'0 0.0
2017-Aug-26 14:59N 37°06' E 025°22'0 0.0
2017-Aug-26 13:56N 37°06' E 025°22'0 0.0
2017-Aug-26 13:29N 37°06' E 025°22'0 0.0
2017-Aug-26 12:59N 37°06' E 025°22'0 0.0
2017-Aug-26 12:29N 37°06' E 025°22'0 0.0
2017-Aug-26 11:59N 37°06' E 025°22'0 0.0
2017-Aug-26 11:29N 37°06' E 025°22'0 0.0
2017-Aug-26 10:59N 37°06' E 025°22'0 0.0
2017-Aug-26 10:29N 37°06' E 025°22'0 0.0
2017-Aug-26 09:59N 37°06' E 025°22'0 0.0
2017-Aug-26 09:26N 37°06' E 025°22'0 0.0
2017-Aug-26 08:59N 37°06' E 025°22'0 0.0
2017-Aug-26 08:29N 37°06' E 025°22'0 0.0
2017-Aug-26 07:59N 37°06' E 025°22'0 0.0
2017-Aug-26 07:29N 37°06' E 025°22'0 0.0
2017-Aug-26 06:59N 37°06' E 025°22'0 0.0
2017-Aug-26 06:29N 37°06' E 025°22'0 0.0
2017-Aug-26 05:59N 37°06' E 025°22'0 0.0
2017-Aug-26 05:29N 37°06' E 025°22'0 0.0
2017-Aug-26 04:59N 37°06' E 025°22'0 0.0
2017-Aug-26 04:29N 37°06' E 025°22'0 0.0
2017-Aug-26 03:59N 37°06' E 025°22'0 0.0
2017-Aug-26 03:29N 37°06' E 025°22'0 0.0
2017-Aug-26 02:59N 37°06' E 025°22'0 0.0
2017-Aug-26 02:26N 37°06' E 025°22'0 0.0
2017-Aug-26 01:59N 37°06' E 025°22'0 0.0
2017-Aug-26 01:29N 37°06' E 025°22'0 0.0
2017-Aug-26 00:59N 37°06' E 025°22'0 0.0
2017-Aug-26 00:29N 37°06' E 025°22'0 0.0
2017-Aug-25 23:59N 37°06' E 025°22'0 0.0
2017-Aug-25 23:29N 37°06' E 025°22'0 0.0
2017-Aug-25 22:59N 37°06' E 025°22'0 0.0
2017-Aug-25 22:29N 37°06' E 025°22'0 0.0
2017-Aug-25 21:59N 37°06' E 025°22'0 0.0
2017-Aug-25 21:29N 37°06' E 025°22'0 0.0
2017-Aug-25 20:59N 37°06' E 025°22'0 0.0
2017-Aug-25 20:26N 37°06' E 025°22'0 0.0
2017-Aug-25 19:59N 37°06' E 025°22'0 0.0
2017-Aug-25 19:29N 37°06' E 025°22'0 0.0
2017-Aug-25 18:56N 37°06' E 025°22'0 0.0
2017-Aug-25 18:26N 37°06' E 025°22'0 0.0
2017-Aug-25 17:59N 37°06' E 025°22'0 0.0
2017-Aug-25 17:29N 37°06' E 025°22'0 0.0
2017-Aug-25 16:59N 37°06' E 025°22'0 0.0
2017-Aug-25 16:29N 37°06' E 025°22'0 0.0
2017-Aug-25 15:59N 37°06' E 025°22'0 0.0
2017-Aug-25 15:29N 37°06' E 025°22'0 0.0
2017-Aug-25 14:56N 37°06' E 025°22'0 0.0
2017-Aug-25 14:29N 37°06' E 025°22'0 0.0
2017-Aug-25 13:29N 37°06' E 025°22'0 0.0
2017-Aug-25 12:59N 37°06' E 025°22'0 0.0
2017-Aug-25 12:29N 37°06' E 025°22'0 0.0
2017-Aug-25 11:59N 37°06' E 025°22'0 0.0
2017-Aug-25 11:29N 37°06' E 025°22'0 0.0
2017-Aug-25 10:59N 37°06' E 025°22'0 0.0
2017-Aug-25 10:29N 37°06' E 025°22'0 0.0
2017-Aug-25 09:59N 37°06' E 025°22'0 0.0
2017-Aug-25 09:29N 37°06' E 025°22'0 0.0
2017-Aug-25 08:59N 37°06' E 025°22'0 0.0
2017-Aug-25 08:29N 37°06' E 025°22'0 0.0
2017-Aug-25 07:59N 37°06' E 025°22'0 0.0
2017-Aug-25 07:29N 37°06' E 025°22'0 0.0
2017-Aug-25 06:59N 37°06' E 025°22'0 0.0
2017-Aug-25 06:29N 37°06' E 025°22'0 0.0
2017-Aug-25 05:59N 37°06' E 025°22'0 0.0
2017-Aug-25 05:29N 37°06' E 025°22'0 0.0
2017-Aug-25 04:59N 37°06' E 025°22'0 0.0
2017-Aug-25 04:29N 37°06' E 025°22'0 0.0
2017-Aug-25 03:56N 37°06' E 025°22'0 0.0
2017-Aug-25 03:29N 37°06' E 025°22'0 0.0
2017-Aug-25 02:59N 37°06' E 025°22'0 0.0
2017-Aug-25 02:29N 37°06' E 025°22'0 0.0
2017-Aug-25 01:59N 37°06' E 025°22'0 0.0
2017-Aug-25 01:29N 37°06' E 025°22'0 0.0
2017-Aug-25 00:59N 37°06' E 025°22'0 0.0
2017-Aug-25 00:29N 37°06' E 025°22'0 0.0
2017-Aug-24 23:53N 37°06' E 025°22'0 0.0
2017-Aug-24 23:29N 37°06' E 025°22'0 0.0
2017-Aug-24 22:59N 37°06' E 025°22'0 0.0
2017-Aug-24 22:26N 37°06' E 025°22'0 0.0
2017-Aug-24 21:59N 37°06' E 025°22'0 0.0
2017-Aug-24 21:23N 37°06' E 025°22'0 0.0
2017-Aug-24 20:59N 37°06' E 025°22'0 0.0
2017-Aug-24 20:20N 37°06' E 025°22'0 0.0
2017-Aug-24 19:59N 37°06' E 025°22'0 0.0
2017-Aug-24 19:26N 37°06' E 025°22'0 0.0
2017-Aug-24 18:59N 37°06' E 025°22'0 0.0
2017-Aug-24 18:29N 37°06' E 025°22'0 0.0
2017-Aug-24 17:59N 37°06' E 025°22'0 0.0
2017-Aug-24 17:29N 37°06' E 025°22'0 0.0
2017-Aug-24 16:53N 37°06' E 025°22'0 0.0
2017-Aug-24 16:26N 37°06' E 025°22'0 0.0
2017-Aug-24 15:56N 37°06' E 025°22'0 0.0
2017-Aug-24 15:29N 37°06' E 025°22'0 0.0
2017-Aug-24 14:59N 37°06' E 025°22'0 0.0
2017-Aug-24 14:29N 37°06' E 025°22'0 0.0
2017-Aug-24 13:59N 37°06' E 025°22'0 0.0
2017-Aug-24 13:29N 37°06' E 025°22'0 0.0
2017-Aug-24 12:53N 37°06' E 025°22'0 0.0
2017-Aug-24 12:29N 37°06' E 025°22'0 0.0
2017-Aug-24 11:50N 37°06' E 025°22'0 0.0
2017-Aug-24 11:29N 37°06' E 025°22'0 0.0
2017-Aug-24 10:59N 37°06' E 025°22'0 0.0
2017-Aug-24 10:29N 37°06' E 025°22'0 0.0
2017-Aug-24 09:59N 37°06' E 025°22'0 0.0
2017-Aug-24 09:26N 37°06' E 025°22'0 0.0
2017-Aug-24 08:59N 37°06' E 025°22'0 0.0
2017-Aug-24 08:26N 37°06' E 025°22'0 0.0
2017-Aug-24 07:56N 37°06' E 025°22'0 0.0
2017-Aug-24 07:29N 37°06' E 025°22'0 0.0
2017-Aug-24 06:59N 37°06' E 025°22'0 0.0
2017-Aug-24 06:29N 37°06' E 025°22'0 0.0
2017-Aug-24 05:59N 37°06' E 025°22'0 0.0
2017-Aug-24 05:29N 37°06' E 025°22'0 0.0
2017-Aug-24 04:59N 37°06' E 025°22'0 0.0
2017-Aug-24 04:29N 37°06' E 025°22'0 0.0
2017-Aug-24 03:59N 37°06' E 025°22'0 0.0
2017-Aug-24 03:29N 37°06' E 025°22'0 0.0
2017-Aug-24 02:59N 37°06' E 025°22'0 0.0
2017-Aug-24 02:29N 37°06' E 025°22'0 0.0
2017-Aug-24 01:59N 37°06' E 025°22'0 0.0
2017-Aug-24 01:29N 37°06' E 025°22'0 0.0
2017-Aug-24 00:59N 37°06' E 025°22'0 0.0
2017-Aug-24 00:29N 37°06' E 025°22'0 0.0
2017-Aug-23 23:59N 37°06' E 025°22'0 0.0
2017-Aug-23 23:26N 37°06' E 025°22'0 0.0
2017-Aug-23 22:56N 37°06' E 025°22'0 0.0
2017-Aug-23 22:29N 37°06' E 025°22'0 0.0
2017-Aug-23 21:53N 37°06' E 025°22'0 0.0
2017-Aug-23 21:29N 37°06' E 025°22'0 0.0
2017-Aug-23 20:59N 37°06' E 025°22'0 0.0
2017-Aug-23 20:29N 37°06' E 025°22'0 0.0
2017-Aug-23 19:56N 37°06' E 025°22'0 0.0
2017-Aug-23 19:29N 37°06' E 025°22'0 0.0
2017-Aug-23 18:59N 37°06' E 025°22'0 0.0
2017-Aug-23 18:29N 37°06' E 025°22'0 0.0
2017-Aug-23 17:59N 37°06' E 025°22'0 0.0
2017-Aug-23 17:29N 37°06' E 025°22'0 0.0
2017-Aug-23 16:59N 37°06' E 025°22'0 0.0
2017-Aug-23 16:29N 37°06' E 025°22'0 0.0
2017-Aug-23 15:59N 37°06' E 025°22'0 0.0
2017-Aug-23 15:26N 37°06' E 025°22'0 0.0
2017-Aug-23 14:59N 37°06' E 025°22'0 0.0
2017-Aug-23 14:29N 37°06' E 025°22'0 0.0
2017-Aug-23 13:29N 37°06' E 025°22'0 0.0
2017-Aug-23 12:59N 37°06' E 025°22'0 0.0
2017-Aug-23 12:29N 37°06' E 025°22'0 0.0
2017-Aug-23 11:59N 37°06' E 025°22'0 0.0
2017-Aug-23 11:26N 37°06' E 025°22'0 0.0
2017-Aug-23 10:59N 37°06' E 025°22'0 0.0
2017-Aug-23 10:26N 37°06' E 025°22'0 0.0
2017-Aug-23 09:59N 37°06' E 025°22'0 0.0
2017-Aug-23 09:29N 37°06' E 025°22'0 0.0
2017-Aug-23 08:59N 37°06' E 025°22'0 0.0
2017-Aug-23 08:29N 37°06' E 025°22'0 0.0
2017-Aug-23 07:54N 37°06' E 025°22'0 0.0
2017-Aug-23 07:29N 37°06' E 025°22'0 0.0
2017-Aug-23 06:59N 37°06' E 025°22'0 0.0
2017-Aug-23 06:29N 37°06' E 025°22'0 0.0
2017-Aug-23 05:59N 37°06' E 025°22'0 0.0
2017-Aug-23 05:29N 37°06' E 025°22'0 0.0
2017-Aug-23 04:59N 37°06' E 025°22'0 0.0
2017-Aug-23 04:29N 37°06' E 025°22'0 0.0
2017-Aug-23 03:59N 37°06' E 025°22'0 0.0
2017-Aug-23 03:29N 37°06' E 025°22'0 0.0
2017-Aug-23 02:59N 37°06' E 025°22'0 0.0
2017-Aug-23 02:29N 37°06' E 025°22'0 0.0
2017-Aug-23 01:59N 37°06' E 025°22'0 0.0
2017-Aug-23 01:29N 37°06' E 025°22'0 0.0
2017-Aug-23 00:59N 37°06' E 025°22'0 0.0
2017-Aug-23 00:29N 37°06' E 025°22'0 0.0
2017-Aug-22 23:59N 37°06' E 025°22'0 0.0
2017-Aug-22 23:29N 37°06' E 025°22'0 0.0
2017-Aug-22 22:59N 37°06' E 025°22'0 0.0
2017-Aug-22 22:29N 37°06' E 025°22'0 0.0
2017-Aug-22 21:59N 37°06' E 025°22'0 0.0
2017-Aug-22 21:29N 37°06' E 025°22'0 0.0
2017-Aug-22 20:59N 37°06' E 025°22'0 0.0
2017-Aug-22 20:29N 37°06' E 025°22'0 0.0
2017-Aug-22 19:59N 37°06' E 025°22'0 0.0
2017-Aug-22 19:29N 37°06' E 025°22'0 0.0
2017-Aug-22 18:59N 37°06' E 025°22'0 0.0
2017-Aug-22 18:29N 37°06' E 025°22'0 0.0
2017-Aug-22 17:53N 37°06' E 025°22'0 0.0
2017-Aug-22 17:29N 37°06' E 025°22'0 0.0
2017-Aug-22 16:59N 37°06' E 025°22'0 0.0
2017-Aug-22 16:29N 37°06' E 025°22'0 0.0
2017-Aug-22 15:56N 37°06' E 025°22'0 0.0
2017-Aug-22 15:29N 37°06' E 025°22'0 0.0
2017-Aug-22 14:53N 37°06' E 025°22'0 0.0
2017-Aug-22 14:29N 37°06' E 025°22'0 0.0
2017-Aug-22 13:56N 37°06' E 025°22'0 0.0
2017-Aug-22 13:29N 37°06' E 025°22'0 0.0
2017-Aug-22 12:59N 37°06' E 025°22'0 0.0
2017-Aug-22 12:29N 37°06' E 025°22'0 0.0
2017-Aug-22 11:59N 37°06' E 025°22'0 0.0
2017-Aug-22 11:29N 37°06' E 025°22'0 0.0
2017-Aug-22 10:56N 37°06' E 025°22'0 0.0
2017-Aug-22 10:29N 37°06' E 025°22'0 0.0
2017-Aug-22 09:59N 37°06' E 025°22'0 0.0
2017-Aug-22 09:29N 37°06' E 025°22'0 0.0
2017-Aug-22 08:59N 37°06' E 025°22'0 0.0
2017-Aug-22 08:23N 37°06' E 025°22'0 0.0
2017-Aug-22 07:56N 37°06' E 025°22'0 0.0
2017-Aug-22 07:29N 37°06' E 025°22'0 0.0
2017-Aug-22 06:59N 37°06' E 025°22'0 0.0
2017-Aug-22 06:29N 37°06' E 025°22'0 0.0
2017-Aug-22 05:59N 37°06' E 025°22'0 0.0
2017-Aug-22 05:29N 37°06' E 025°22'0 0.0
2017-Aug-22 04:50N 37°06' E 025°22'0 0.0
2017-Aug-22 04:29N 37°06' E 025°22'0 0.0
2017-Aug-22 03:59N 37°06' E 025°22'0 0.0
2017-Aug-22 03:29N 37°06' E 025°22'0 0.0
2017-Aug-22 02:59N 37°06' E 025°22'0 0.0
2017-Aug-22 02:29N 37°06' E 025°22'0 0.0
2017-Aug-22 01:59N 37°06' E 025°22'0 0.0
2017-Aug-22 01:29N 37°06' E 025°22'0 0.0
2017-Aug-22 00:59N 37°06' E 025°22'0 0.0
2017-Aug-22 00:29N 37°06' E 025°22'0 0.0
2017-Aug-21 23:59N 37°06' E 025°22'0 0.0
2017-Aug-21 23:29N 37°06' E 025°22'0 0.0
2017-Aug-21 22:59N 37°06' E 025°22'0 0.0
2017-Aug-21 22:29N 37°06' E 025°22'0 0.0
2017-Aug-21 21:59N 37°06' E 025°22'0 0.0
2017-Aug-21 21:29N 37°06' E 025°22'0 0.0
2017-Aug-21 20:59N 37°06' E 025°22'0 0.0
2017-Aug-21 20:29N 37°06' E 025°22'0 0.0
2017-Aug-21 19:59N 37°06' E 025°22'0 0.0
2017-Aug-21 19:29N 37°06' E 025°22'0 0.0
2017-Aug-21 18:56N 37°06' E 025°22'0 0.0
2017-Aug-21 18:29N 37°06' E 025°22'0 0.0
2017-Aug-21 17:59N 37°06' E 025°22'0 0.0
2017-Aug-21 17:23N 37°06' E 025°22'0 0.0
2017-Aug-21 16:59N 37°06' E 025°22'0 0.0
2017-Aug-21 16:29N 37°06' E 025°22'0 0.0
2017-Aug-21 15:59N 37°06' E 025°22'0 0.0
2017-Aug-21 15:29N 37°06' E 025°22'0 0.0
2017-Aug-21 14:59N 37°06' E 025°22'0 0.0
2017-Aug-21 14:29N 37°06' E 025°22'0 0.0
2017-Aug-21 13:59N 37°06' E 025°22'0 0.0
2017-Aug-21 13:29N 37°06' E 025°22'0 0.0
2017-Aug-21 12:59N 37°06' E 025°22'0 0.0
2017-Aug-21 12:29N 37°06' E 025°22'0 0.0
2017-Aug-21 11:56N 37°06' E 025°22'0 1.0
2017-Aug-21 11:30N 37°06' E 025°22'3 6.7
2017-Aug-21 11:01N 37°09' E 025°19'3 5.7
2017-Aug-21 10:29N 37°09' E 025°15'1 0.6
2017-Aug-21 08:30N 37°08' E 025°14'7 0.2
2017-Aug-19 11:32N 37°07' E 025°06'0 5.8
2017-Aug-19 11:30N 37°07' E 025°05'2 4.8
2017-Aug-19 11:00N 37°09' E 025°04'2 3.1
2017-Aug-19 10:30N 37°10' E 025°03'2 3.1
2017-Aug-19 10:00N 37°12' E 025°01'2 3.3
2017-Aug-19 09:30N 37°13' E 025°00'2 4.3
2017-Aug-19 09:00N 37°15' E 024°59'3 5.0
2017-Aug-19 08:29N 37°17' E 024°57'  
Track history (hours):
 
Tides and Currents Weather Stations Pressure Air Temp Water Temp Dewpoint Dewpoint Depression Visibility Wind Speed Wind Dir Waves Ship Positions

Tara

Owner: Powell, Mark C, Tulsa, OK. More information available from US FCC via Universal Licensing System and Coast Guard Vessel Documentation Center.

Last reported at 2017-Aug-29 08:26 UTC. Time now 2017-Sep-23 07:44 UTC.
Position N 37°09' E 025°47'.
Warning: this ship's position is 24 days out of date.

Length 17 m.

Type: Sailing vessel. MMSI: 367525660.

Date/timePositionNaut miles runAvg speedWind from/ knotsBaromVisibWave heightAir tempDewpointWater temp
2017-Aug-29 08:26N 37°09' E 025°47'3 6.6
2017-Aug-29 08:00N 37°10' E 025°44'3 6.2
2017-Aug-29 07:30N 37°11' E 025°40'9 6.3
2017-Aug-29 06:06N 37°12' E 025°29'1 5.5
2017-Aug-29 06:00N 37°12' E 025°28'5 5.3
2017-Aug-29 05:04N 37°08' E 025°24'0 6.2
2017-Aug-29 05:00N 37°08' E 025°23'2 3.8
2017-Aug-29 04:28N 37°06' E 025°22'0 0.0
2017-Aug-29 03:57N 37°06' E 025°22'0 0.0
2017-Aug-29 03:30N 37°06' E 025°22'0 0.0
2017-Aug-29 03:00N 37°06' E 025°22'0 0.0
2017-Aug-29 02:30N 37°06' E 025°22'0 0.0
2017-Aug-29 01:59N 37°06' E 025°22'0 0.0
2017-Aug-29 01:29N 37°06' E 025°22'0 0.0
2017-Aug-29 00:59N 37°06' E 025°22'0 0.0
2017-Aug-29 00:29N 37°06' E 025°22'0 0.0
2017-Aug-28 23:59N 37°06' E 025°22'0 0.0
2017-Aug-28 23:29N 37°06' E 025°22'0 0.0
2017-Aug-28 22:59N 37°06' E 025°22'0 0.0
2017-Aug-28 22:29N 37°06' E 025°22'0 0.0
2017-Aug-28 21:56N 37°06' E 025°22'0 0.0
2017-Aug-28 21:29N 37°06' E 025°22'0 0.0
2017-Aug-28 20:59N 37°06' E 025°22'0 0.0
2017-Aug-28 20:29N 37°06' E 025°22'0 0.0
2017-Aug-28 19:59N 37°06' E 025°22'0 0.0
2017-Aug-28 19:29N 37°06' E 025°22'0 0.0
2017-Aug-28 18:59N 37°06' E 025°22'0 0.0
2017-Aug-28 18:29N 37°06' E 025°22'0 0.0
2017-Aug-28 17:59N 37°06' E 025°22'0 0.0
2017-Aug-28 17:29N 37°06' E 025°22'0 0.0
2017-Aug-28 16:59N 37°06' E 025°22'0 0.0
2017-Aug-28 16:29N 37°06' E 025°22'0 0.0
2017-Aug-28 15:59N 37°06' E 025°22'0 0.0
2017-Aug-28 15:29N 37°06' E 025°22'0 0.0
2017-Aug-28 14:59N 37°06' E 025°22'0 0.0
2017-Aug-28 14:29N 37°06' E 025°22'0 0.0
2017-Aug-28 13:59N 37°06' E 025°22'0 0.0
2017-Aug-28 13:29N 37°06' E 025°22'0 0.0
2017-Aug-28 12:59N 37°06' E 025°22'0 0.0
2017-Aug-28 12:26N 37°06' E 025°22'0 0.0
2017-Aug-28 11:59N 37°06' E 025°22'0 0.0
2017-Aug-28 11:29N 37°06' E 025°22'0 0.0
2017-Aug-28 10:59N 37°06' E 025°22'0 0.0
2017-Aug-28 10:29N 37°06' E 025°22'0 0.0
2017-Aug-28 09:59N 37°06' E 025°22'0 0.0
2017-Aug-28 09:29N 37°06' E 025°22'0 0.0
2017-Aug-28 09:00N 37°06' E 025°22'0 0.0
2017-Aug-28 08:29N 37°06' E 025°22'0 0.0
2017-Aug-28 07:59N 37°06' E 025°22'0 0.0
2017-Aug-28 07:29N 37°06' E 025°22'0 0.0
2017-Aug-28 06:59N 37°06' E 025°22'0 0.0
2017-Aug-28 03:17N 37°06' E 025°22'0 0.0
2017-Aug-28 02:59N 37°06' E 025°22'0 0.0
2017-Aug-28 02:29N 37°06' E 025°22'0 0.0
2017-Aug-28 01:59N 37°06' E 025°22'0 0.0
2017-Aug-28 01:29N 37°06' E 025°22'0 0.0
2017-Aug-28 00:59N 37°06' E 025°22'0 0.0
2017-Aug-28 00:29N 37°06' E 025°22'0 0.0
2017-Aug-27 23:56N 37°06' E 025°22'0 0.0
2017-Aug-27 23:29N 37°06' E 025°22'0 0.0
2017-Aug-27 22:59N 37°06' E 025°22'0 0.0
2017-Aug-27 22:29N 37°06' E 025°22'0 0.0
2017-Aug-27 21:59N 37°06' E 025°22'0 0.0
2017-Aug-27 21:26N 37°06' E 025°22'0 0.0
2017-Aug-27 20:59N 37°06' E 025°22'0 0.0
2017-Aug-27 20:29N 37°06' E 025°22'0 0.0
2017-Aug-27 19:59N 37°06' E 025°22'0 0.0
2017-Aug-27 19:29N 37°06' E 025°22'0 0.0
2017-Aug-27 18:59N 37°06' E 025°22'0 0.0
2017-Aug-27 18:29N 37°06' E 025°22'0 0.0
2017-Aug-27 17:59N 37°06' E 025°22'0 0.0
2017-Aug-27 17:29N 37°06' E 025°22'0 0.0
2017-Aug-27 16:59N 37°06' E 025°22'0 0.0
2017-Aug-27 16:29N 37°06' E 025°22'0 0.0
2017-Aug-27 15:59N 37°06' E 025°22'0 0.0
2017-Aug-27 15:29N 37°06' E 025°22'0 0.0
2017-Aug-27 14:56N 37°06' E 025°22'0 0.0
2017-Aug-27 14:29N 37°06' E 025°22'0 0.0
2017-Aug-27 13:59N 37°06' E 025°22'0 0.0
2017-Aug-27 13:29N 37°06' E 025°22'0 0.0
2017-Aug-27 13:00N 37°06' E 025°22'0 0.0
2017-Aug-27 12:29N 37°06' E 025°22'0 0.0
2017-Aug-27 11:59N 37°06' E 025°22'0 0.0
2017-Aug-27 11:29N 37°06' E 025°22'0 0.0
2017-Aug-27 10:59N 37°06' E 025°22'0 0.0
2017-Aug-27 10:29N 37°06' E 025°22'0 0.0
2017-Aug-27 09:59N 37°06' E 025°22'0 0.0
2017-Aug-27 09:29N 37°06' E 025°22'0 0.0
2017-Aug-27 08:59N 37°06' E 025°22'0 0.0
2017-Aug-27 08:29N 37°06' E 025°22'0 0.0
2017-Aug-27 07:59N 37°06' E 025°22'0 0.0
2017-Aug-27 07:29N 37°06' E 025°22'0 0.0
2017-Aug-27 06:59N 37°06' E 025°22'0 0.0
2017-Aug-27 06:29N 37°06' E 025°22'0 0.0
2017-Aug-27 05:59N 37°06' E 025°22'0 0.0
2017-Aug-27 05:29N 37°06' E 025°22'0 0.0
2017-Aug-27 04:59N 37°06' E 025°22'0 0.0
2017-Aug-27 04:26N 37°06' E 025°22'0 0.0
2017-Aug-27 03:59N 37°06' E 025°22'0 0.0
2017-Aug-27 03:29N 37°06' E 025°22'0 0.0
2017-Aug-27 02:59N 37°06' E 025°22'0 0.0
2017-Aug-27 02:29N 37°06' E 025°22'0 0.0
2017-Aug-27 01:59N 37°06' E 025°22'0 0.0
2017-Aug-27 01:29N 37°06' E 025°22'0 0.0
2017-Aug-27 00:59N 37°06' E 025°22'0 0.0
2017-Aug-27 00:29N 37°06' E 025°22'0 0.0
2017-Aug-26 23:59N 37°06' E 025°22'0 0.0
2017-Aug-26 23:29N 37°06' E 025°22'0 0.0
2017-Aug-26 22:59N 37°06' E 025°22'0 0.0
2017-Aug-26 22:29N 37°06' E 025°22'0 0.0
2017-Aug-26 21:59N 37°06' E 025°22'0 0.0
2017-Aug-26 21:29N 37°06' E 025°22'0 0.0
2017-Aug-26 20:59N 37°06' E 025°22'0 0.0
2017-Aug-26 20:29N 37°06' E 025°22'0 0.0
2017-Aug-26 19:59N 37°06' E 025°22'0 0.0
2017-Aug-26 19:29N 37°06' E 025°22'0 0.0
2017-Aug-26 18:59N 37°06' E 025°22'0 0.0
2017-Aug-26 18:29N 37°06' E 025°22'0 0.0
2017-Aug-26 17:59N 37°06' E 025°22'0 0.0
2017-Aug-26 17:29N 37°06' E 025°22'0 0.0
2017-Aug-26 16:59N 37°06' E 025°22'0 0.0
2017-Aug-26 16:29N 37°06' E 025°22'0 0.0
2017-Aug-26 15:56N 37°06' E 025°22'0 0.0
2017-Aug-26 15:29N 37°06' E 025°22'0 0.0
2017-Aug-26 14:59N 37°06' E 025°22'0 0.0
2017-Aug-26 13:56N 37°06' E 025°22'0 0.0
2017-Aug-26 13:29N 37°06' E 025°22'0 0.0
2017-Aug-26 12:59N 37°06' E 025°22'0 0.0
2017-Aug-26 12:29N 37°06' E 025°22'0 0.0
2017-Aug-26 11:59N 37°06' E 025°22'0 0.0
2017-Aug-26 11:29N 37°06' E 025°22'0 0.0
2017-Aug-26 10:59N 37°06' E 025°22'0 0.0
2017-Aug-26 10:29N 37°06' E 025°22'0 0.0
2017-Aug-26 09:59N 37°06' E 025°22'0 0.0
2017-Aug-26 09:26N 37°06' E 025°22'0 0.0
2017-Aug-26 08:59N 37°06' E 025°22'0 0.0
2017-Aug-26 08:29N 37°06' E 025°22'0 0.0
2017-Aug-26 07:59N 37°06' E 025°22'0 0.0
2017-Aug-26 07:29N 37°06' E 025°22'0 0.0
2017-Aug-26 06:59N 37°06' E 025°22'0 0.0
2017-Aug-26 06:29N 37°06' E 025°22'0 0.0
2017-Aug-26 05:59N 37°06' E 025°22'0 0.0
2017-Aug-26 05:29N 37°06' E 025°22'0 0.0
2017-Aug-26 04:59N 37°06' E 025°22'0 0.0
2017-Aug-26 04:29N 37°06' E 025°22'0 0.0
2017-Aug-26 03:59N 37°06' E 025°22'0 0.0
2017-Aug-26 03:29N 37°06' E 025°22'0 0.0
2017-Aug-26 02:59N 37°06' E 025°22'0 0.0
2017-Aug-26 02:26N 37°06' E 025°22'0 0.0
2017-Aug-26 01:59N 37°06' E 025°22'0 0.0
2017-Aug-26 01:29N 37°06' E 025°22'0 0.0
2017-Aug-26 00:59N 37°06' E 025°22'0 0.0
2017-Aug-26 00:29N 37°06' E 025°22'0 0.0
2017-Aug-25 23:59N 37°06' E 025°22'0 0.0
2017-Aug-25 23:29N 37°06' E 025°22'0 0.0
2017-Aug-25 22:59N 37°06' E 025°22'0 0.0
2017-Aug-25 22:29N 37°06' E 025°22'0 0.0
2017-Aug-25 21:59N 37°06' E 025°22'0 0.0
2017-Aug-25 21:29N 37°06' E 025°22'0 0.0
2017-Aug-25 20:59N 37°06' E 025°22'0 0.0
2017-Aug-25 20:26N 37°06' E 025°22'0 0.0
2017-Aug-25 19:59N 37°06' E 025°22'0 0.0
2017-Aug-25 19:29N 37°06' E 025°22'0 0.0
2017-Aug-25 18:56N 37°06' E 025°22'0 0.0
2017-Aug-25 18:26N 37°06' E 025°22'0 0.0
2017-Aug-25 17:59N 37°06' E 025°22'0 0.0
2017-Aug-25 17:29N 37°06' E 025°22'0 0.0
2017-Aug-25 16:59N 37°06' E 025°22'0 0.0
2017-Aug-25 16:29N 37°06' E 025°22'0 0.0
2017-Aug-25 15:59N 37°06' E 025°22'0 0.0
2017-Aug-25 15:29N 37°06' E 025°22'0 0.0
2017-Aug-25 14:56N 37°06' E 025°22'0 0.0
2017-Aug-25 14:29N 37°06' E 025°22'0 0.0
2017-Aug-25 13:29N 37°06' E 025°22'0 0.0
2017-Aug-25 12:59N 37°06' E 025°22'0 0.0
2017-Aug-25 12:29N 37°06' E 025°22'0 0.0
2017-Aug-25 11:59N 37°06' E 025°22'0 0.0
2017-Aug-25 11:29N 37°06' E 025°22'0 0.0
2017-Aug-25 10:59N 37°06' E 025°22'0 0.0
2017-Aug-25 10:29N 37°06' E 025°22'0 0.0
2017-Aug-25 09:59N 37°06' E 025°22'0 0.0
2017-Aug-25 09:29N 37°06' E 025°22'0 0.0
2017-Aug-25 08:59N 37°06' E 025°22'0 0.0
2017-Aug-25 08:29N 37°06' E 025°22'0 0.0
2017-Aug-25 07:59N 37°06' E 025°22'0 0.0
2017-Aug-25 07:29N 37°06' E 025°22'0 0.0
2017-Aug-25 06:59N 37°06' E 025°22'0 0.0
2017-Aug-25 06:29N 37°06' E 025°22'0 0.0
2017-Aug-25 05:59N 37°06' E 025°22'0 0.0
2017-Aug-25 05:29N 37°06' E 025°22'0 0.0
2017-Aug-25 04:59N 37°06' E 025°22'0 0.0
2017-Aug-25 04:29N 37°06' E 025°22'0 0.0
2017-Aug-25 03:56N 37°06' E 025°22'0 0.0
2017-Aug-25 03:29N 37°06' E 025°22'0 0.0
2017-Aug-25 02:59N 37°06' E 025°22'0 0.0
2017-Aug-25 02:29N 37°06' E 025°22'0 0.0
2017-Aug-25 01:59N 37°06' E 025°22'0 0.0
2017-Aug-25 01:29N 37°06' E 025°22'0 0.0
2017-Aug-25 00:59N 37°06' E 025°22'0 0.0
2017-Aug-25 00:29N 37°06' E 025°22'0 0.0
2017-Aug-24 23:53N 37°06' E 025°22'0 0.0
2017-Aug-24 23:29N 37°06' E 025°22'0 0.0
2017-Aug-24 22:59N 37°06' E 025°22'0 0.0
2017-Aug-24 22:26N 37°06' E 025°22'0 0.0
2017-Aug-24 21:59N 37°06' E 025°22'0 0.0
2017-Aug-24 21:23N 37°06' E 025°22'0 0.0
2017-Aug-24 20:59N 37°06' E 025°22'0 0.0
2017-Aug-24 20:20N 37°06' E 025°22'0 0.0
2017-Aug-24 19:59N 37°06' E 025°22'0 0.0
2017-Aug-24 19:26N 37°06' E 025°22'0 0.0
2017-Aug-24 18:59N 37°06' E 025°22'0 0.0
2017-Aug-24 18:29N 37°06' E 025°22'0 0.0
2017-Aug-24 17:59N 37°06' E 025°22'0 0.0
2017-Aug-24 17:29N 37°06' E 025°22'0 0.0
2017-Aug-24 16:53N 37°06' E 025°22'0 0.0
2017-Aug-24 16:26N 37°06' E 025°22'0 0.0
2017-Aug-24 15:56N 37°06' E 025°22'0 0.0
2017-Aug-24 15:29N 37°06' E 025°22'0 0.0
2017-Aug-24 14:59N 37°06' E 025°22'0 0.0
2017-Aug-24 14:29N 37°06' E 025°22'0 0.0
2017-Aug-24 13:59N 37°06' E 025°22'0 0.0
2017-Aug-24 13:29N 37°06' E 025°22'0 0.0
2017-Aug-24 12:53N 37°06' E 025°22'0 0.0
2017-Aug-24 12:29N 37°06' E 025°22'0 0.0
2017-Aug-24 11:50N 37°06' E 025°22'0 0.0
2017-Aug-24 11:29N 37°06' E 025°22'0 0.0
2017-Aug-24 10:59N 37°06' E 025°22'0 0.0
2017-Aug-24 10:29N 37°06' E 025°22'0 0.0
2017-Aug-24 09:59N 37°06' E 025°22'0 0.0
2017-Aug-24 09:26N 37°06' E 025°22'0 0.0
2017-Aug-24 08:59N 37°06' E 025°22'0 0.0
2017-Aug-24 08:26N 37°06' E 025°22'0 0.0
2017-Aug-24 07:56N 37°06' E 025°22'0 0.0
2017-Aug-24 07:29N 37°06' E 025°22'0 0.0
2017-Aug-24 06:59N 37°06' E 025°22'0 0.0
2017-Aug-24 06:29N 37°06' E 025°22'0 0.0
2017-Aug-24 05:59N 37°06' E 025°22'0 0.0
2017-Aug-24 05:29N 37°06' E 025°22'0 0.0
2017-Aug-24 04:59N 37°06' E 025°22'0 0.0
2017-Aug-24 04:29N 37°06' E 025°22'0 0.0
2017-Aug-24 03:59N 37°06' E 025°22'0 0.0
2017-Aug-24 03:29N 37°06' E 025°22'0 0.0
2017-Aug-24 02:59N 37°06' E 025°22'0 0.0
2017-Aug-24 02:29N 37°06' E 025°22'0 0.0
2017-Aug-24 01:59N 37°06' E 025°22'0 0.0
2017-Aug-24 01:29N 37°06' E 025°22'0 0.0
2017-Aug-24 00:59N 37°06' E 025°22'0 0.0
2017-Aug-24 00:29N 37°06' E 025°22'0 0.0
2017-Aug-23 23:59N 37°06' E 025°22'0 0.0
2017-Aug-23 23:26N 37°06' E 025°22'0 0.0
2017-Aug-23 22:56N 37°06' E 025°22'0 0.0
2017-Aug-23 22:29N 37°06' E 025°22'0 0.0
2017-Aug-23 21:53N 37°06' E 025°22'0 0.0
2017-Aug-23 21:29N 37°06' E 025°22'0 0.0
2017-Aug-23 20:59N 37°06' E 025°22'0 0.0
2017-Aug-23 20:29N 37°06' E 025°22'0 0.0
2017-Aug-23 19:56N 37°06' E 025°22'0 0.0
2017-Aug-23 19:29N 37°06' E 025°22'0 0.0
2017-Aug-23 18:59N 37°06' E 025°22'0 0.0
2017-Aug-23 18:29N 37°06' E 025°22'0 0.0
2017-Aug-23 17:59N 37°06' E 025°22'0 0.0
2017-Aug-23 17:29N 37°06' E 025°22'0 0.0
2017-Aug-23 16:59N 37°06' E 025°22'0 0.0
2017-Aug-23 16:29N 37°06' E 025°22'0 0.0
2017-Aug-23 15:59N 37°06' E 025°22'0 0.0
2017-Aug-23 15:26N 37°06' E 025°22'0 0.0
2017-Aug-23 14:59N 37°06' E 025°22'0 0.0
2017-Aug-23 14:29N 37°06' E 025°22'0 0.0
2017-Aug-23 13:29N 37°06' E 025°22'0 0.0
2017-Aug-23 12:59N 37°06' E 025°22'0 0.0
2017-Aug-23 12:29N 37°06' E 025°22'0 0.0
2017-Aug-23 11:59N 37°06' E 025°22'0 0.0
2017-Aug-23 11:26N 37°06' E 025°22'0 0.0
2017-Aug-23 10:59N 37°06' E 025°22'0 0.0
2017-Aug-23 10:26N 37°06' E 025°22'0 0.0
2017-Aug-23 09:59N 37°06' E 025°22'0 0.0
2017-Aug-23 09:29N 37°06' E 025°22'0 0.0
2017-Aug-23 08:59N 37°06' E 025°22'0 0.0
2017-Aug-23 08:29N 37°06' E 025°22'0 0.0
2017-Aug-23 07:54N 37°06' E 025°22'0 0.0
2017-Aug-23 07:29N 37°06' E 025°22'0 0.0
2017-Aug-23 06:59N 37°06' E 025°22'0 0.0
2017-Aug-23 06:29N 37°06' E 025°22'0 0.0
2017-Aug-23 05:59N 37°06' E 025°22'0 0.0
2017-Aug-23 05:29N 37°06' E 025°22'0 0.0
2017-Aug-23 04:59N 37°06' E 025°22'0 0.0
2017-Aug-23 04:29N 37°06' E 025°22'0 0.0
2017-Aug-23 03:59N 37°06' E 025°22'0 0.0
2017-Aug-23 03:29N 37°06' E 025°22'0 0.0
2017-Aug-23 02:59N 37°06' E 025°22'0 0.0
2017-Aug-23 02:29N 37°06' E 025°22'0 0.0
2017-Aug-23 01:59N 37°06' E 025°22'0 0.0
2017-Aug-23 01:29N 37°06' E 025°22'0 0.0
2017-Aug-23 00:59N 37°06' E 025°22'0 0.0
2017-Aug-23 00:29N 37°06' E 025°22'0 0.0
2017-Aug-22 23:59N 37°06' E 025°22'0 0.0
2017-Aug-22 23:29N 37°06' E 025°22'0 0.0
2017-Aug-22 22:59N 37°06' E 025°22'0 0.0
2017-Aug-22 22:29N 37°06' E 025°22'0 0.0
2017-Aug-22 21:59N 37°06' E 025°22'0 0.0
2017-Aug-22 21:29N 37°06' E 025°22'0 0.0
2017-Aug-22 20:59N 37°06' E 025°22'0 0.0
2017-Aug-22 20:29N 37°06' E 025°22'0 0.0
2017-Aug-22 19:59N 37°06' E 025°22'0 0.0
2017-Aug-22 19:29N 37°06' E 025°22'0 0.0
2017-Aug-22 18:59N 37°06' E 025°22'0 0.0
2017-Aug-22 18:29N 37°06' E 025°22'0 0.0
2017-Aug-22 17:53N 37°06' E 025°22'0 0.0
2017-Aug-22 17:29N 37°06' E 025°22'0 0.0
2017-Aug-22 16:59N 37°06' E 025°22'0 0.0
2017-Aug-22 16:29N 37°06' E 025°22'0 0.0
2017-Aug-22 15:56N 37°06' E 025°22'0 0.0
2017-Aug-22 15:29N 37°06' E 025°22'0 0.0
2017-Aug-22 14:53N 37°06' E 025°22'0 0.0
2017-Aug-22 14:29N 37°06' E 025°22'0 0.0
2017-Aug-22 13:56N 37°06' E 025°22'0 0.0
2017-Aug-22 13:29N 37°06' E 025°22'0 0.0
2017-Aug-22 12:59N 37°06' E 025°22'0 0.0
2017-Aug-22 12:29N 37°06' E 025°22'0 0.0
2017-Aug-22 11:59N 37°06' E 025°22'0 0.0
2017-Aug-22 11:29N 37°06' E 025°22'0 0.0
2017-Aug-22 10:56N 37°06' E 025°22'0 0.0
2017-Aug-22 10:29N 37°06' E 025°22'0 0.0
2017-Aug-22 09:59N 37°06' E 025°22'0 0.0
2017-Aug-22 09:29N 37°06' E 025°22'0 0.0
2017-Aug-22 08:59N 37°06' E 025°22'0 0.0
2017-Aug-22 08:23N 37°06' E 025°22'0 0.0
2017-Aug-22 07:56N 37°06' E 025°22'0 0.0
2017-Aug-22 07:29N 37°06' E 025°22'0 0.0
2017-Aug-22 06:59N 37°06' E 025°22'0 0.0
2017-Aug-22 06:29N 37°06' E 025°22'0 0.0
2017-Aug-22 05:59N 37°06' E 025°22'0 0.0
2017-Aug-22 05:29N 37°06' E 025°22'0 0.0
2017-Aug-22 04:50N 37°06' E 025°22'0 0.0
2017-Aug-22 04:29N 37°06' E 025°22'0 0.0
2017-Aug-22 03:59N 37°06' E 025°22'0 0.0
2017-Aug-22 03:29N 37°06' E 025°22'0 0.0
2017-Aug-22 02:59N 37°06' E 025°22'0 0.0
2017-Aug-22 02:29N 37°06' E 025°22'0 0.0
2017-Aug-22 01:59N 37°06' E 025°22'0 0.0
2017-Aug-22 01:29N 37°06' E 025°22'0 0.0
2017-Aug-22 00:59N 37°06' E 025°22'0 0.0
2017-Aug-22 00:29N 37°06' E 025°22'0 0.0
2017-Aug-21 23:59N 37°06' E 025°22'0 0.0
2017-Aug-21 23:29N 37°06' E 025°22'0 0.0
2017-Aug-21 22:59N 37°06' E 025°22'0 0.0
2017-Aug-21 22:29N 37°06' E 025°22'0 0.0
2017-Aug-21 21:59N 37°06' E 025°22'0 0.0
2017-Aug-21 21:29N 37°06' E 025°22'0 0.0
2017-Aug-21 20:59N 37°06' E 025°22'0 0.0
2017-Aug-21 20:29N 37°06' E 025°22'0 0.0
2017-Aug-21 19:59N 37°06' E 025°22'0 0.0
2017-Aug-21 19:29N 37°06' E 025°22'0 0.0
2017-Aug-21 18:56N 37°06' E 025°22'0 0.0
2017-Aug-21 18:29N 37°06' E 025°22'0 0.0
2017-Aug-21 17:59N 37°06' E 025°22'0 0.0
2017-Aug-21 17:23N 37°06' E 025°22'0 0.0
2017-Aug-21 16:59N 37°06' E 025°22'0 0.0
2017-Aug-21 16:29N 37°06' E 025°22'0 0.0
2017-Aug-21 15:59N 37°06' E 025°22'0 0.0
2017-Aug-21 15:29N 37°06' E 025°22'0 0.0
2017-Aug-21 14:59N 37°06' E 025°22'0 0.0
2017-Aug-21 14:29N 37°06' E 025°22'0 0.0
2017-Aug-21 13:59N 37°06' E 025°22'0 0.0
2017-Aug-21 13:29N 37°06' E 025°22'0 0.0
2017-Aug-21 12:59N 37°06' E 025°22'0 0.0
2017-Aug-21 12:29N 37°06' E 025°22'0 0.0
2017-Aug-21 11:56N 37°06' E 025°22'0 1.0
2017-Aug-21 11:30N 37°06' E 025°22'3 6.7
2017-Aug-21 11:01N 37°09' E 025°19'3 5.7
2017-Aug-21 10:29N 37°09' E 025°15'1 0.6
2017-Aug-21 08:30N 37°08' E 025°14'7 0.2
2017-Aug-19 11:32N 37°07' E 025°06'0 5.8
2017-Aug-19 11:30N 37°07' E 025°05'2 4.8
2017-Aug-19 11:00N 37°09' E 025°04'2 3.1
2017-Aug-19 10:30N 37°10' E 025°03'2 3.1
2017-Aug-19 10:00N 37°12' E 025°01'2 3.3
2017-Aug-19 09:30N 37°13' E 025°00'2 4.3
2017-Aug-19 09:00N 37°15' E 024°59'3 5.0
2017-Aug-19 08:29N 37°17' E 024°57'  

Dump ship's entire track history